Time;durP1;ratioP1;P1;durP2;ratioP2;P2;SDS_P1;SDS_P2;PMS_P1;PMS_P2;Temp;Humidity;BMP_temperature;BMP_pressure;BME280_temperature;BME280_humidity;BME280_pressure;Samples;Min_cycle;Max_cycle;Signal;HPM_P1;HPM_P2
2022/06/05 00:01:41;;;;;;;4.73;4.40;;;19.40;30.80;;;;;;4968834;28;21018;-69
2022/06/05 00:04:31;;;;;;;11.10;6.27;;;19.40;31.00;;;;;;4954300;29;20178;-71
2022/06/05 00:07:17;;;;;;;6.93;6.27;;;19.30;31.30;;;;;;4954386;28;20508;-67
2022/06/05 00:10:00;;;;;;;6.20;5.70;;;19.30;31.50;;;;;;4954175;28;20460;-70
2022/06/05 00:12:35;;;;;;;6.50;5.73;;;19.30;31.60;;;;;;4953929;29;20413;-68
2022/06/05 00:15:01;;;;;;;6.97;5.47;;;19.20;32.10;;;;;;4954214;29;20975;-68
2022/06/05 00:17:29;;;;;;;6.33;5.83;;;18.90;33.30;;;;;;4954037;29;20552;-68
2022/06/05 00:19:55;;;;;;;4.43;4.13;;;18.90;33.40;;;;;;4954007;28;20217;-67
2022/06/05 00:22:21;;;;;;;4.87;4.47;;;18.80;33.50;;;;;;4953821;29;20418;-67
2022/06/05 00:24:46;;;;;;;6.00;4.97;;;18.80;34.10;;;;;;4953990;29;20217;-68
2022/06/05 00:27:28;;;;;;;9.90;5.57;;;18.80;33.70;;;;;;4953883;29;20509;-69
2022/06/05 00:30:12;;;;;;;6.47;5.40;;;18.70;33.90;;;;;;4953844;28;20194;-69
2022/06/05 00:32:58;;;;;;;6.07;5.47;;;18.70;34.10;;;;;;4953606;29;20418;-67
2022/06/05 00:35:33;;;;;;;6.00;5.37;;;18.80;33.50;;;;;;4953853;29;20760;-68
2022/06/05 00:38:22;;;;;;;7.77;5.87;;;18.70;34.30;;;;;;4953812;29;20464;-68
2022/06/05 00:41:05;;;;;;;6.50;5.77;;;18.70;34.50;;;;;;4953754;28;20520;-68
2022/06/05 00:43:31;;;;;;;6.00;5.50;;;18.80;33.90;;;;;;4953611;29;20461;-68
2022/06/05 00:45:57;;;;;;;9.10;6.80;;;18.90;33.50;;;;;;4953633;29;20418;-67
2022/06/05 00:48:23;;;;;;;6.50;5.90;;;18.90;33.60;;;;;;4953666;29;20180;-67
2022/06/05 00:50:49;;;;;;;7.07;5.80;;;18.90;33.60;;;;;;4953577;28;20438;-68
2022/06/05 00:53:15;;;;;;;7.53;6.83;;;18.90;33.60;;;;;;4953429;29;20245;-68
2022/06/05 00:55:44;;;;;;;6.07;5.57;;;18.90;33.60;;;;;;4953631;29;20375;-70
2022/06/05 00:58:11;;;;;;;7.47;5.70;;;18.90;33.50;;;;;;4953977;29;20216;-68
2022/06/05 01:00:40;;;;;;;6.27;5.33;;;18.90;33.00;;;;;;4953495;28;20524;-71
2022/06/05 01:03:09;;;;;;;6.60;6.10;;;18.90;33.60;;;;;;4953607;29;20413;-68
2022/06/05 01:05:35;;;;;;;5.53;5.03;;;18.90;33.60;;;;;;4953701;29;20473;-71
2022/06/05 01:08:00;;;;;;;6.60;5.97;;;18.90;33.60;;;;;;4953579;29;20950;-70
2022/06/05 01:10:40;;;;;;;4.43;4.13;;;18.70;34.80;;;;;;4953665;28;20446;-68
2022/06/05 01:13:21;;;;;;;6.07;5.20;;;18.70;34.10;;;;;;4953295;29;20185;-68
2022/06/05 01:16:05;;;;;;;5.90;5.50;;;18.80;33.50;;;;;;4957121;29;20428;-69
2022/06/05 01:18:43;;;;;;;9.90;6.13;;;18.80;34.10;;;;;;4957249;28;20840;-70
2022/06/05 01:21:08;;;;;;;8.47;7.67;;;18.80;34.20;;;;;;4972336;28;20508;-67
2022/06/05 01:24:08;;;;;;;8.50;6.70;;;18.80;34.30;;;;;;4957059;29;20870;-68
2022/06/05 01:26:36;;;;;;;7.83;6.93;;;18.90;33.90;;;;;;4957149;28;20225;-68
2022/06/05 01:29:10;;;;;;;11.80;7.50;;;18.90;34.80;;;;;;4957084;28;20524;-67
2022/06/05 01:31:43;;;;;;;8.97;7.60;;;18.90;34.00;;;;;;4956772;29;20416;-69
2022/06/05 01:34:39;;;;;;;7.87;7.13;;;18.90;34.00;;;;;;4957131;29;20756;-67
2022/06/05 01:37:35;;;;;;;8.33;7.60;;;18.90;34.80;;;;;;4957175;28;20413;-67
2022/06/05 01:40:07;;;;;;;8.03;7.33;;;18.50;36.70;;;;;;4955688;28;20463;-67
2022/06/05 01:42:58;;;;;;;9.50;8.53;;;18.40;37.90;;;;;;4956749;29;20784;-67
2022/06/05 01:45:31;;;;;;;8.27;7.43;;;18.60;37.30;;;;;;4956822;29;20476;-70
2022/06/05 01:47:59;;;;;;;7.33;6.73;;;18.50;37.70;;;;;;4956829;29;20511;-67
2022/06/05 01:50:28;;;;;;;6.00;5.50;;;18.50;37.60;;;;;;4955343;28;20441;-67
2022/06/05 01:52:58;;;;;;;8.17;6.97;;;18.50;37.80;;;;;;4956500;29;20417;-69
2022/06/05 01:55:27;;;;;;;7.07;6.47;;;18.70;37.10;;;;;;4956764;29;20783;-71
2022/06/05 01:57:57;;;;;;;6.37;5.77;;;18.70;36.70;;;;;;4956555;29;20468;-69
2022/06/05 02:00:23;;;;;;;6.97;6.37;;;18.60;37.80;;;;;;5014305;23;20496;-70
2022/06/05 02:02:54;;;;;;;5.53;5.03;;;18.70;37.80;;;;;;5015665;28;20414;-71
2022/06/05 02:05:45;;;;;;;5.83;5.33;;;18.80;36.90;;;;;;5016376;28;20767;-71
2022/06/05 02:08:41;;;;;;;7.53;6.80;;;18.70;37.30;;;;;;5017270;28;20889;-70
2022/06/05 02:11:15;;;;;;;8.10;6.60;;;18.70;37.60;;;;;;5017220;28;20482;-70
2022/06/05 02:13:41;;;;;;;13.00;8.00;;;18.60;38.60;;;;;;5017201;28;20772;-71
2022/06/05 02:16:08;;;;;;;8.23;6.70;;;18.70;37.90;;;;;;5017136;28;20845;-70
2022/06/05 02:18:33;;;;;;;9.27;7.20;;;18.60;38.30;;;;;;5016722;28;20477;-70
2022/06/05 02:21:01;;;;;;;8.43;7.70;;;18.50;38.50;;;;;;5017554;28;20817;-71
2022/06/05 02:23:29;;;;;;;11.63;8.17;;;18.50;38.50;;;;;;5018495;28;20179;-72
2022/06/05 02:25:55;;;;;;;8.47;7.47;;;18.60;38.10;;;;;;5017029;28;20419;-71
2022/06/05 02:28:21;;;;;;;7.07;6.53;;;18.70;37.70;;;;;;5017853;28;20417;-70
2022/06/05 02:30:53;;;;;;;6.77;6.07;;;18.70;37.30;;;;;;5018153;28;20795;-71
2022/06/05 02:33:55;;;;;;;8.00;7.30;;;18.80;36.70;;;;;;5015571;28;21074;-71
2022/06/05 02:36:51;;;;;;;10.17;7.70;;;18.90;35.80;;;;;;5015799;28;20513;-71
2022/06/05 02:39:30;;;;;;;8.87;5.67;;;18.90;35.10;;;;;;5015553;28;20537;-71
2022/06/05 02:42:25;;;;;;;7.33;6.73;;;18.90;35.20;;;;;;5015955;28;20429;-71
2022/06/05 02:45:22;;;;;;;8.33;7.50;;;18.70;36.50;;;;;;5015151;28;20399;-71
2022/06/05 02:48:23;;;;;;;7.70;7.00;;;18.60;37.50;;;;;;5015060;28;20600;-71
2022/06/05 02:51:13;;;;;;;6.90;6.30;;;18.60;37.90;;;;;;5015121;28;20454;-71
2022/06/05 02:53:47;;;;;;;8.67;7.87;;;18.70;38.00;;;;;;5014109;28;20431;-71
2022/06/05 02:56:13;;;;;;;8.57;7.47;;;18.50;38.50;;;;;;5015434;28;20461;-71
2022/06/05 02:58:39;;;;;;;8.13;7.30;;;18.40;38.40;;;;;;5014414;28;20565;-71
2022/06/05 03:03:50;;;;;;;7.23;6.53;;;18.30;39.30;;;;;;5013837;28;20552;-70
2022/06/05 03:06:16;;;;;;;8.83;7.93;;;18.10;40.90;;;;;;5014695;28;20428;-71
2022/06/05 03:08:41;;;;;;;8.20;7.40;;;17.90;42.50;;;;;;5015083;28;20195;-71
2022/06/05 03:11:07;;;;;;;8.93;7.40;;;17.80;43.10;;;;;;5014874;28;20199;-71
2022/06/05 03:13:33;;;;;;;9.03;8.23;;;17.60;44.30;;;;;;5015055;28;20204;-71
2022/06/05 03:15:59;;;;;;;12.27;9.67;;;17.50;45.40;;;;;;5014367;28;20175;-68
2022/06/05 03:18:25;;;;;;;10.17;9.27;;;17.50;45.60;;;;;;5014369;28;20877;-68
2022/06/05 03:20:56;;;;;;;9.93;8.93;;;17.60;45.20;;;;;;5014362;28;20200;-69
2022/06/05 03:23:21;;;;;;;8.87;7.27;;;17.70;44.70;;;;;;5014517;28;20183;-69
2022/06/05 03:25:47;;;;;;;8.27;7.47;;;17.60;44.70;;;;;;5015575;28;20418;-70
2022/06/05 03:28:12;;;;;;;8.77;7.97;;;17.60;45.00;;;;;;5014591;28;20180;-68
2022/06/05 03:30:41;;;;;;;9.23;8.43;;;17.50;46.10;;;;;;5014900;28;20222;-70
2022/06/05 03:33:07;;;;;;;9.47;8.27;;;17.50;46.20;;;;;;5014195;28;20176;-69
2022/06/05 03:35:42;;;;;;;9.00;8.03;;;17.60;45.90;;;;;;5014608;28;21055;-69
2022/06/05 03:38:08;;;;;;;10.17;9.17;;;17.60;46.10;;;;;;5013971;28;20541;-69
2022/06/05 03:40:34;;;;;;;8.10;7.30;;;17.50;46.20;;;;;;5014240;28;20427;-69
2022/06/05 03:43:00;;;;;;;9.70;8.70;;;17.50;46.40;;;;;;5013831;28;20425;-68
2022/06/05 03:45:26;;;;;;;10.13;9.17;;;17.50;46.80;;;;;;5014360;28;20499;-69
2022/06/05 03:47:51;;;;;;;9.43;8.47;;;17.40;47.40;;;;;;5014177;28;20529;-69
2022/06/05 03:50:18;;;;;;;10.87;9.70;;;17.40;47.80;;;;;;5014340;28;20215;-69
2022/06/05 03:52:44;;;;;;;10.43;8.40;;;17.40;47.90;;;;;;5013781;28;20188;-69
2022/06/05 03:55:14;;;;;;;11.67;8.00;;;17.50;47.40;;;;;;5014355;28;20433;-69
2022/06/05 03:57:40;;;;;;;10.23;7.73;;;17.60;47.00;;;;;;5013136;28;20896;-68
2022/06/05 04:00:07;;;;;;;11.10;8.87;;;17.70;46.10;;;;;;5014401;28;20466;-69
2022/06/05 04:02:32;;;;;;;11.00;8.50;;;17.80;46.00;;;;;;5014374;28;20931;-69
2022/06/05 04:05:00;;;;;;;8.67;7.70;;;17.90;44.50;;;;;;5014563;28;20419;-69
2022/06/05 04:07:25;;;;;;;8.53;7.73;;;18.10;43.40;;;;;;5014331;28;20823;-69
2022/06/05 04:09:51;;;;;;;9.00;8.20;;;18.30;41.80;;;;;;5013671;28;20435;-68
2022/06/05 04:12:16;;;;;;;9.00;8.10;;;18.40;41.10;;;;;;5011715;28;20180;-69
2022/06/05 04:14:42;;;;;;;9.77;8.87;;;18.40;41.20;;;;;;5013473;28;20175;-68
2022/06/05 04:17:07;;;;;;;8.10;7.40;;;18.50;40.80;;;;;;5013785;28;20181;-69
2022/06/05 04:19:33;;;;;;;9.00;8.20;;;18.50;40.00;;;;;;5013185;28;20220;-69
2022/06/05 04:22:00;;;;;;;8.43;7.73;;;18.20;41.90;;;;;;5012807;28;20187;-68
2022/06/05 04:24:26;;;;;;;7.33;6.63;;;18.30;41.90;;;;;;5013155;28;20683;-69
2022/06/05 04:26:51;;;;;;;12.23;8.60;;;18.30;41.10;;;;;;5013151;28;20789;-69
2022/06/05 04:29:17;;;;;;;9.23;8.10;;;18.30;41.20;;;;;;5013008;28;20546;-68
2022/06/05 04:31:47;;;;;;;10.57;9.50;;;18.30;41.10;;;;;;5012955;28;20192;-69
2022/06/05 04:34:15;;;;;;;8.93;8.03;;;18.40;40.70;;;;;;5013254;28;20422;-69
2022/06/05 04:36:41;;;;;;;8.57;7.70;;;18.40;40.50;;;;;;5012895;28;20426;-68
2022/06/05 04:39:06;;;;;;;6.97;6.37;;;18.40;40.90;;;;;;5012659;28;20458;-68
2022/06/05 04:41:32;;;;;;;15.70;8.47;;;18.40;40.60;;;;;;5012563;28;20406;-69
2022/06/05 04:43:58;;;;;;;10.70;7.40;;;18.40;41.00;;;;;;5012907;28;20184;-69
2022/06/05 04:46:26;;;;;;;10.30;9.30;;;18.50;40.00;;;;;;5013163;28;20179;-69
2022/06/05 04:48:51;;;;;;;8.57;7.50;;;18.60;39.90;;;;;;5012228;28;20195;-68
2022/06/05 04:51:20;;;;;;;9.13;8.43;;;18.70;39.10;;;;;;5012215;28;20443;-68
2022/06/05 04:53:47;;;;;;;10.50;8.77;;;18.80;38.80;;;;;;5012461;28;20195;-69
2022/06/05 04:56:16;;;;;;;10.83;7.00;;;18.80;38.80;;;;;;5013213;28;20429;-69
2022/06/05 04:58:41;;;;;;;8.47;7.70;;;18.80;38.80;;;;;;5013578;28;20551;-68
2022/06/05 05:01:17;;;;;;;9.00;7.83;;;18.80;38.80;;;;;;5012929;28;20451;-69
2022/06/05 05:03:43;;;;;;;10.70;7.63;;;18.80;39.50;;;;;;5013164;28;20187;-69
2022/06/05 05:06:09;;;;;;;8.23;7.50;;;18.80;38.80;;;;;;5013119;28;20457;-68
2022/06/05 05:08:36;;;;;;;8.10;7.30;;;18.80;38.10;;;;;;5013221;28;20427;-69
2022/06/05 05:11:02;;;;;;;10.10;9.10;;;18.80;38.80;;;;;;5013106;28;20474;-68
2022/06/05 05:13:27;;;;;;;7.13;6.40;;;18.90;38.20;;;;;;5012879;28;20813;-69
2022/06/05 05:15:53;;;;;;;11.57;7.43;;;18.90;38.40;;;;;;5011389;28;20422;-69
2022/06/05 05:18:19;;;;;;;11.63;10.43;;;18.90;38.90;;;;;;5014058;28;20214;-71
2022/06/05 05:20:45;;;;;;;8.70;7.90;;;18.80;41.90;;;;;;5016279;28;20219;-71
2022/06/05 05:23:12;;;;;;;13.30;9.87;;;18.80;43.20;;;;;;5015216;28;20923;-72
2022/06/05 05:25:37;;;;;;;9.47;7.07;;;18.80;44.00;;;;;;5013741;28;20476;-70
2022/06/05 05:28:06;;;;;;;9.90;8.80;;;18.70;44.80;;;;;;5013858;28;20976;-69
2022/06/05 05:30:36;;;;;;;10.97;7.87;;;18.70;45.70;;;;;;5013096;28;20192;-69
2022/06/05 05:33:02;;;;;;;18.40;10.47;;;18.70;45.90;;;;;;5014551;28;20791;-74
2022/06/05 05:35:28;;;;;;;17.23;11.00;;;18.40;49.50;;;;;;5012155;28;20423;-74
2022/06/05 05:37:53;;;;;;;13.30;9.37;;;18.40;49.20;;;;;;5012578;28;20239;-72
2022/06/05 05:43:03;;;;;;;10.40;7.40;;;18.40;50.50;;;;;;5012008;28;20187;-71
2022/06/05 05:45:29;;;;;;;14.47;10.23;;;18.40;50.30;;;;;;5004652;28;20420;-71
2022/06/05 05:47:54;;;;;;;9.20;8.17;;;18.20;50.90;;;;;;4993108;28;20258;-72
2022/06/05 05:50:21;;;;;;;8.63;6.17;;;18.00;53.50;;;;;;4993479;28;20196;-72
2022/06/05 05:52:46;;;;;;;15.10;7.67;;;18.00;52.80;;;;;;4992788;28;20772;-71
2022/06/05 05:55:19;;;;;;;10.10;6.77;;;18.00;53.50;;;;;;4992889;28;20419;-70
2022/06/05 05:57:47;;;;;;;7.33;5.57;;;18.00;53.50;;;;;;5010681;28;20207;-70
2022/06/05 06:00:15;;;;;;;8.07;5.70;;;18.00;53.70;;;;;;5011615;28;20454;-70
2022/06/05 06:02:42;;;;;;;4.10;3.63;;;18.00;54.10;;;;;;5016204;28;20445;-71
2022/06/05 06:05:10;;;;;;;11.30;7.03;;;17.70;54.60;;;;;;5016183;28;20410;-71
2022/06/05 06:07:36;;;;;;;8.00;7.20;;;17.50;58.10;;;;;;5011753;28;20432;-71
2022/06/05 06:10:03;;;;;;;5.80;5.20;;;17.00;60.70;;;;;;4996903;28;20813;-70
2022/06/05 06:12:29;;;;;;;14.43;6.37;;;16.80;63.60;;;;;;5013429;28;20995;-70
2022/06/05 06:14:55;;;;;;;3.97;3.57;;;16.60;66.90;;;;;;5015026;28;20486;-70
2022/06/05 06:17:21;;;;;;;3.70;3.40;;;16.60;64.40;;;;;;5014951;28;20663;-71
2022/06/05 06:19:47;;;;;;;4.53;3.17;;;16.60;63.00;;;;;;5007837;28;20200;-71
2022/06/05 06:22:12;;;;;;;3.13;2.90;;;16.70;59.70;;;;;;5000581;28;20426;-71
2022/06/05 06:24:38;;;;;;;3.20;2.70;;;16.70;60.90;;;;;;5001841;28;20272;-71
2022/06/05 06:27:04;;;;;;;3.20;2.90;;;16.70;60.20;;;;;;4995047;28;20176;-71
2022/06/05 06:29:29;;;;;;;3.20;3.00;;;16.70;57.30;;;;;;4993720;28;20207;-71
2022/06/05 06:31:55;;;;;;;4.53;4.13;;;16.70;57.30;;;;;;5003150;28;20805;-71
2022/06/05 06:34:21;;;;;;;3.97;3.40;;;16.60;58.80;;;;;;5014603;28;20176;-70
2022/06/05 06:36:46;;;;;;;3.17;2.97;;;16.50;57.20;;;;;;5014581;28;20242;-71
2022/06/05 06:39:12;;;;;;;3.30;3.10;;;16.40;57.00;;;;;;5014305;28;20204;-70
2022/06/05 06:41:38;;;;;;;4.60;2.40;;;16.60;54.20;;;;;;5008052;28;20204;-70
2022/06/05 06:44:04;;;;;;;3.47;3.17;;;16.50;55.10;;;;;;5013967;28;20263;-70
2022/06/05 06:46:30;;;;;;;4.47;4.10;;;16.60;53.30;;;;;;5012767;28;20226;-70
2022/06/05 06:48:56;;;;;;;3.93;3.70;;;16.60;49.10;;;;;;5014335;28;20422;-68
2022/06/05 06:51:22;;;;;;;4.83;4.43;;;16.50;50.40;;;;;;5014198;28;20418;-68
2022/06/05 06:53:48;;;;;;;3.20;2.90;;;16.40;51.40;;;;;;5008380;28;20192;-68
2022/06/05 06:56:21;;;;;;;3.80;2.80;;;16.30;53.20;;;;;;4994827;28;20184;-69
2022/06/05 06:58:47;;;;;;;3.20;3.00;;;16.20;56.90;;;;;;4993462;28;20463;-68
2022/06/05 07:01:14;;;;;;;3.40;2.83;;;16.20;54.50;;;;;;4998411;28;20467;-68
2022/06/05 07:03:40;;;;;;;2.80;2.60;;;16.20;53.50;;;;;;4993325;28;20416;-69
2022/06/05 07:06:09;;;;;;;2.63;2.43;;;16.20;55.10;;;;;;4994428;28;20434;-69
2022/06/05 07:08:36;;;;;;;3.70;2.43;;;16.20;61.20;;;;;;4994149;28;20443;-68
2022/06/05 07:11:04;;;;;;;2.47;2.27;;;16.20;65.10;;;;;;4999412;28;20517;-69
2022/06/05 07:13:29;;;;;;;2.60;2.40;;;16.20;67.10;;;;;;5013291;28;20415;-69
2022/06/05 07:15:55;;;;;;;3.10;2.37;;;16.30;68.20;;;;;;5012096;28;20437;-69
2022/06/05 07:18:20;;;;;;;3.00;2.70;;;16.40;69.10;;;;;;5013666;28;20689;-69
2022/06/05 07:20:46;;;;;;;2.30;1.90;;;16.40;70.40;;;;;;5010619;28;20204;-69
2022/06/05 07:23:12;;;;;;;2.23;2.03;;;16.50;70.70;;;;;;5007036;28;20212;-69
2022/06/05 07:25:51;;;;;;;2.10;1.90;;;16.50;69.70;;;;;;4992115;28;20510;-69
2022/06/05 07:28:18;;;;;;;2.20;2.00;;;16.60;70.90;;;;;;4992192;28;20777;-69
2022/06/05 07:30:49;;;;;;;2.03;1.30;;;16.60;70.70;;;;;;4992178;28;20494;-69
2022/06/05 07:33:14;;;;;;;2.53;1.80;;;16.60;71.80;;;;;;4991947;28;20503;-69
2022/06/05 07:35:41;;;;;;;4.07;2.10;;;16.80;72.60;;;;;;4998720;28;21022;-69
2022/06/05 07:38:07;;;;;;;3.17;1.90;;;16.80;71.10;;;;;;5013324;28;20529;-69
2022/06/05 07:40:41;;;;;;;3.17;1.63;;;16.90;72.40;;;;;;5013246;28;20427;-69
2022/06/05 07:43:09;;;;;;;1.80;1.50;;;17.00;73.00;;;;;;5013226;28;20168;-69
2022/06/05 07:45:35;;;;;;;2.93;1.80;;;17.10;73.10;;;;;;5013335;28;20415;-70
2022/06/05 07:48:01;;;;;;;2.90;1.53;;;17.30;75.10;;;;;;5007329;28;20932;-69
2022/06/05 07:50:26;;;;;;;4.97;2.67;;;17.50;76.20;;;;;;4993585;28;20446;-69
2022/06/05 07:55:36;;;;;;;3.97;2.03;;;17.90;75.50;;;;;;4993909;28;20265;-70
2022/06/05 07:58:01;;;;;;;1.60;1.23;;;18.00;75.90;;;;;;4993487;28;20482;-69
2022/06/05 08:00:27;;;;;;;4.33;1.93;;;18.30;77.30;;;;;;5003176;28;20219;-69
2022/06/05 08:02:52;;;;;;;2.40;2.17;;;18.70;78.70;;;;;;5012592;28;20179;-69
2022/06/05 08:05:18;;;;;;;3.87;1.70;;;19.00;79.80;;;;;;5012856;28;20176;-69
2022/06/05 08:07:44;;;;;;;6.47;1.80;;;19.30;80.10;;;;;;5012918;28;20183;-70
2022/06/05 08:10:10;;;;;;;5.93;2.03;;;19.50;81.10;;;;;;5012950;28;20199;-70
2022/06/05 08:12:36;;;;;;;4.40;2.27;;;19.80;80.70;;;;;;5000631;28;20188;-70
2022/06/05 08:15:05;;;;;;;5.83;2.07;;;20.20;81.00;;;;;;4993234;28;20447;-69
2022/06/05 08:17:32;;;;;;;3.00;2.17;;;20.70;81.50;;;;;;4993087;28;20431;-69
2022/06/05 08:19:59;;;;;;;2.47;1.63;;;21.10;81.80;;;;;;4995994;28;20438;-71
2022/06/05 08:22:25;;;;;;;1.90;1.00;;;21.60;82.30;;;;;;4996723;28;20418;-70
2022/06/05 08:24:54;;;;;;;2.60;0.90;;;22.00;81.20;;;;;;5011891;28;21029;-70
2022/06/05 08:27:23;;;;;;;2.63;1.10;;;22.30;77.30;;;;;;5016768;28;20421;-69
2022/06/05 08:29:50;;;;;;;2.60;1.30;;;22.10;56.30;;;;;;5016571;28;20445;-69
2022/06/05 08:32:16;;;;;;;2.00;0.90;;;22.10;51.10;;;;;;5016202;28;20506;-69
2022/06/05 08:34:42;;;;;;;2.93;1.30;;;22.20;47.20;;;;;;5014969;28;20426;-70
2022/06/05 08:43:03;;;;;;;5.23;1.50;;;23.40;40.20;;;;;;4996586;28;20883;-70
2022/06/05 08:45:38;;;;;;;2.57;1.40;;;23.80;41.30;;;;;;4996409;28;20459;-70
2022/06/05 08:48:10;;;;;;;2.30;1.07;;;24.00;36.80;;;;;;5008854;28;20892;-70
2022/06/05 08:50:53;;;;;;;2.10;1.00;;;24.10;36.50;;;;;;5016130;28;20422;-70
2022/06/05 08:53:37;;;;;;;1.87;1.33;;;24.30;34.90;;;;;;5015603;28;20426;-70
2022/06/05 08:56:05;;;;;;;2.43;1.50;;;24.40;39.70;;;;;;5014873;28;20461;-70
2022/06/05 08:58:36;;;;;;;1.90;1.30;;;24.40;43.40;;;;;;5015531;28;20462;-70
2022/06/05 09:01:16;;;;;;;2.23;1.40;;;24.40;37.40;;;;;;5014931;28;20836;-70
2022/06/05 09:03:46;;;;;;;2.00;1.47;;;24.40;36.40;;;;;;5014327;28;20494;-69
2022/06/05 09:06:19;;;;;;;3.90;2.27;;;24.30;37.20;;;;;;5013391;28;20403;-70
2022/06/05 09:08:49;;;;;;;13.57;2.40;;;24.10;29.50;;;;;;5013846;28;20419;-69
2022/06/05 09:11:39;;;;;;;2.03;1.70;;;24.20;37.50;;;;;;5007098;28;20550;-69
2022/06/05 09:14:42;;;;;;;5.73;2.57;;;24.30;32.70;;;;;;4992691;28;20416;-69
2022/06/05 09:17:18;;;;;;;3.20;2.90;;;24.60;33.30;;;;;;4994290;28;20489;-70
2022/06/05 09:19:47;;;;;;;2.50;2.30;;;24.80;31.20;;;;;;4992466;28;20996;-69
2022/06/05 09:22:26;;;;;;;3.17;2.77;;;25.00;30.10;;;;;;4993093;28;20490;-70
2022/06/05 09:25:09;;;;;;;3.90;3.50;;;25.20;30.40;;;;;;5010852;28;20426;-70
2022/06/05 09:27:55;;;;;;;5.00;2.70;;;25.10;28.50;;;;;;5013403;28;20417;-69
2022/06/05 09:30:36;;;;;;;3.80;2.83;;;25.10;29.60;;;;;;5012796;28;20946;-68
2022/06/05 09:33:15;;;;;;;3.10;2.90;;;25.00;28.60;;;;;;5011732;28;20565;-68
2022/06/05 09:36:00;;;;;;;3.40;2.87;;;24.60;24.20;;;;;;5003714;28;20435;-71
2022/06/05 09:38:46;;;;;;;4.00;3.60;;;24.20;28.10;;;;;;4996608;28;20459;-70
2022/06/05 09:41:11;;;;;;;5.40;3.00;;;23.90;30.00;;;;;;4996073;28;20454;-70
2022/06/05 09:44:08;;;;;;;4.60;2.60;;;23.70;30.10;;;;;;4996623;28;20817;-70
2022/06/05 09:46:59;;;;;;;7.93;2.93;;;23.70;32.50;;;;;;4999606;28;20184;-70
2022/06/05 09:49:46;;;;;;;3.30;3.00;;;23.80;31.50;;;;;;5016011;28;20963;-69
2022/06/05 09:52:24;;;;;;;4.27;3.27;;;24.10;30.10;;;;;;5015956;28;20425;-70
2022/06/05 09:55:20;;;;;;;3.47;2.97;;;24.20;28.80;;;;;;5016048;28;20420;-70
2022/06/05 09:58:27;;;;;;;4.10;3.20;;;24.20;30.70;;;;;;5015217;28;20838;-70
2022/06/05 10:00:58;;;;;;;4.13;3.73;;;24.00;27.50;;;;;;4996396;28;20505;-70
2022/06/05 10:03:37;;;;;;;2.53;2.30;;;23.80;27.90;;;;;;4995706;28;20419;-68
2022/06/05 10:06:15;;;;;;;5.23;3.33;;;23.50;28.80;;;;;;4995844;28;20519;-70
2022/06/05 10:08:44;;;;;;;5.47;3.23;;;23.20;30.80;;;;;;4996606;28;20415;-69
2022/06/05 10:11:31;;;;;;;4.50;4.10;;;23.00;31.90;;;;;;5004029;28;20449;-69
2022/06/05 10:14:25;;;;;;;5.47;3.00;;;22.80;32.60;;;;;;5015542;28;20421;-69
2022/06/05 10:17:06;;;;;;;3.30;2.63;;;22.80;33.70;;;;;;5006620;28;20427;-70
2022/06/05 10:20:07;;;;;;;4.40;2.70;;;22.70;31.60;;;;;;5015649;28;20462;-70
2022/06/05 10:22:38;;;;;;;4.70;3.77;;;22.40;32.90;;;;;;5013795;28;20415;-70
2022/06/05 10:25:23;;;;;;;6.47;3.30;;;22.30;36.60;;;;;;4995894;28;20404;-70
2022/06/05 10:28:01;;;;;;;3.00;2.77;;;22.20;36.50;;;;;;4994265;28;20831;-68
2022/06/05 10:30:33;;;;;;;5.70;3.20;;;22.00;37.30;;;;;;4995926;28;20925;-68
2022/06/05 10:33:17;;;;;;;6.70;3.70;;;22.00;36.30;;;;;;4995087;28;20419;-68
2022/06/05 10:35:53;;;;;;;3.40;2.40;;;21.90;38.10;;;;;;5006764;28;20419;-70
2022/06/05 10:38:33;;;;;;;4.93;3.60;;;21.90;38.60;;;;;;5014773;28;20844;-70
2022/06/05 10:41:32;;;;;;;4.57;3.33;;;21.60;37.70;;;;;;5015108;28;20951;-69
2022/06/05 10:44:11;;;;;;;3.33;2.70;;;21.50;37.60;;;;;;5014496;28;20514;-70
2022/06/05 10:46:43;;;;;;;3.53;2.70;;;21.40;38.50;;;;;;5010992;28;20454;-69
2022/06/05 10:49:17;;;;;;;3.77;3.47;;;21.30;39.60;;;;;;4994673;28;20523;-69
2022/06/05 10:51:57;;;;;;;5.10;3.23;;;21.20;39.30;;;;;;4994608;28;20508;-69
2022/06/05 10:54:35;;;;;;;2.67;2.17;;;21.00;38.70;;;;;;4994859;28;20514;-69
2022/06/05 10:57:05;;;;;;;3.53;3.10;;;20.90;38.50;;;;;;4995264;28;20550;-69
2022/06/05 10:59:55;;;;;;;3.43;2.50;;;20.70;37.70;;;;;;5001883;28;20489;-69
2022/06/05 11:02:28;;;;;;;3.37;2.47;;;20.60;38.50;;;;;;5013459;28;20445;-69
2022/06/05 11:05:31;;;;;;;7.97;2.70;;;20.40;39.20;;;;;;5014135;28;20908;-69
2022/06/05 11:08:00;;;;;;;7.40;2.80;;;20.20;40.00;;;;;;5013890;28;20460;-69
2022/06/05 11:13:39;;;;;;;4.00;2.50;;;20.00;40.90;;;;;;5014049;28;20492;-69
2022/06/05 11:16:35;;;;;;;3.07;2.77;;;19.80;42.20;;;;;;4994989;28;20474;-69
2022/06/05 11:19:19;;;;;;;6.03;2.87;;;19.60;43.00;;;;;;4994883;28;20463;-69
2022/06/05 11:21:48;;;;;;;7.43;2.07;;;19.50;44.70;;;;;;4994443;28;20423;-68
2022/06/05 11:24:30;;;;;;;2.53;1.70;;;19.40;43.10;;;;;;5005384;28;20430;-70
2022/06/05 11:27:11;;;;;;;4.57;2.37;;;19.40;44.60;;;;;;5014244;28;20998;-69
2022/06/05 11:29:37;;;;;;;5.17;3.23;;;19.60;46.80;;;;;;5013517;28;20461;-69
2022/06/05 11:32:28;;;;;;;4.17;3.03;;;19.90;49.70;;;;;;5013677;28;20787;-70
2022/06/05 11:35:29;;;;;;;5.17;2.50;;;20.30;47.30;;;;;;5011543;28;20233;-68
2022/06/05 11:38:08;;;;;;;4.93;1.90;;;20.60;44.70;;;;;;4975551;28;20486;-68
2022/06/05 11:40:57;;;;;;;2.63;2.20;;;20.90;40.90;;;;;;4994935;28;20431;-68
2022/06/05 11:43:30;;;;;;;3.07;2.13;;;21.20;42.80;;;;;;4993958;28;20830;-70
2022/06/05 11:46:03;;;;;;;11.57;2.40;;;21.40;38.70;;;;;;4994190;28;20837;-68
2022/06/05 11:48:52;;;;;;;2.90;2.57;;;21.60;40.10;;;;;;5008302;28;20924;-70
2022/06/05 11:51:30;;;;;;;3.93;3.17;;;21.70;38.00;;;;;;4994155;28;20799;-70
2022/06/05 11:54:07;;;;;;;6.17;3.10;;;21.80;38.30;;;;;;4993910;28;20499;-70
2022/06/05 11:57:06;;;;;;;5.70;2.93;;;21.80;36.40;;;;;;4992511;28;20466;-68
2022/06/05 11:59:44;;;;;;;4.30;2.90;;;22.10;37.50;;;;;;5001706;28;20532;-68
2022/06/05 12:02:31;;;;;;;4.00;2.93;;;22.30;36.60;;;;;;5013006;28;20831;-68
2022/06/05 12:05:26;;;;;;;4.70;3.40;;;22.30;33.60;;;;;;5012922;28;20437;-68
2022/06/05 12:08:03;;;;;;;3.80;3.40;;;22.10;35.50;;;;;;5013123;28;20523;-69
2022/06/05 12:10:30;;;;;;;3.07;2.57;;;22.10;36.50;;;;;;5012071;28;20446;-69
2022/06/05 12:13:14;;;;;;;3.03;2.20;;;22.10;36.50;;;;;;5009460;28;20484;-70
2022/06/05 12:15:55;;;;;;;3.37;2.70;;;22.10;35.10;;;;;;5011663;28;20422;-70
2022/06/05 12:18:31;;;;;;;3.67;2.60;;;22.10;36.10;;;;;;5013213;28;20465;-70
2022/06/05 12:21:19;;;;;;;5.80;2.63;;;22.10;34.00;;;;;;5013248;28;20426;-70
2022/06/05 12:24:02;;;;;;;2.83;1.73;;;21.90;34.30;;;;;;4997629;28;20971;-74
2022/06/05 12:26:50;;;;;;;4.00;2.13;;;21.90;36.20;;;;;;4994056;28;20412;-71
2022/06/05 12:29:20;;;;;;;4.03;2.10;;;22.00;34.80;;;;;;4993660;28;20424;-71
2022/06/05 12:32:00;;;;;;;3.27;2.30;;;22.20;34.30;;;;;;5008600;28;20999;-68
2022/06/05 12:34:33;;;;;;;4.50;2.30;;;22.50;33.60;;;;;;5012754;28;20830;-70
2022/06/05 12:37:11;;;;;;;3.47;2.40;;;22.70;33.50;;;;;;5013214;28;20781;-68
2022/06/05 12:39:46;;;;;;;2.83;2.53;;;22.90;30.60;;;;;;4994732;28;20479;-69
2022/06/05 12:42:32;;;;;;;5.00;2.60;;;22.90;29.80;;;;;;5012339;28;20422;-69
2022/06/05 12:45:01;;;;;;;5.20;2.40;;;23.10;29.10;;;;;;5011192;28;20469;-69
2022/06/05 12:48:04;;;;;;;3.40;2.47;;;23.10;28.80;;;;;;5012356;28;20419;-69
2022/06/05 12:50:38;;;;;;;4.80;2.73;;;23.10;28.50;;;;;;4992742;28;20435;-69
2022/06/05 12:53:22;;;;;;;2.90;2.30;;;23.00;29.50;;;;;;4992252;28;20427;-68
2022/06/05 12:55:54;;;;;;;4.50;3.30;;;23.10;30.00;;;;;;4993079;28;20943;-68
2022/06/05 12:58:28;;;;;;;3.00;2.10;;;23.20;28.90;;;;;;4992857;28;20467;-69
2022/06/05 13:01:12;;;;;;;2.43;2.20;;;23.40;27.80;;;;;;4992675;28;20553;-69
2022/06/05 13:04:06;;;;;;;3.80;3.50;;;23.50;27.30;;;;;;4992443;28;20821;-69
2022/06/05 13:06:57;;;;;;;5.43;3.80;;;23.80;27.10;;;;;;4991518;28;20431;-69
2022/06/05 13:09:57;;;;;;;3.40;3.10;;;23.90;25.90;;;;;;4991750;28;20534;-68
2022/06/05 13:12:35;;;;;;;7.20;3.87;;;24.20;24.50;;;;;;5000643;28;20422;-68
2022/06/05 13:15:49;;;;;;;3.90;3.60;;;24.10;24.80;;;;;;5016193;28;20449;-68
2022/06/05 13:18:40;;;;;;;4.13;3.77;;;23.90;25.70;;;;;;5013572;28;20481;-68
2022/06/05 13:21:15;;;;;;;3.80;3.07;;;23.70;24.30;;;;;;5015880;28;20454;-67
2022/06/05 13:24:10;;;;;;;3.70;3.40;;;23.30;25.80;;;;;;4999135;28;21107;-69
2022/06/05 13:26:53;;;;;;;4.33;2.37;;;23.10;27.30;;;;;;4996608;28;20415;-68
2022/06/05 13:29:47;;;;;;;4.57;2.30;;;23.00;28.60;;;;;;4996165;28;20530;-69
2022/06/05 13:32:33;;;;;;;3.23;3.00;;;22.90;27.80;;;;;;5000831;28;20449;-68
2022/06/05 13:35:26;;;;;;;3.20;2.90;;;22.90;28.50;;;;;;5016049;28;20406;-67
2022/06/05 13:38:07;;;;;;;3.67;3.27;;;22.90;27.20;;;;;;5003650;28;20471;-68